createdAt,value
2023-05-07T00:00:20.181Z,70.31
2023-05-07T00:02:50.437Z,70.26
2023-05-07T00:05:22.929Z,70.15
2023-05-07T00:07:58.413Z,69.92
2023-05-07T00:10:30.363Z,69.76
2023-05-07T00:13:00.625Z,70.05
2023-05-07T00:15:31.708Z,71.32
2023-05-07T00:18:02.497Z,71.34
2023-05-07T00:20:35.989Z,71.38
2023-05-07T00:23:09.043Z,71.18
2023-05-07T00:25:39.206Z,71.03
2023-05-07T00:28:12.742Z,71.16
2023-05-07T00:30:46.212Z,71.16
2023-05-07T00:33:16.312Z,71.43
2023-05-07T00:35:47.469Z,71.16
2023-05-07T00:38:20.293Z,71.03
2023-05-07T00:40:50.605Z,71.69
2023-05-07T00:43:21.191Z,71.56
2023-05-07T00:45:52.930Z,71.39
2023-05-07T00:48:25.532Z,71.35
2023-05-07T00:50:56.696Z,71.70
2023-05-07T00:53:29.508Z,71.62
2023-05-07T00:55:59.796Z,72.58
2023-05-07T00:58:31.582Z,72.53
2023-05-07T01:01:02.134Z,72.13
2023-05-07T01:03:32.675Z,71.76
2023-05-07T01:06:04.860Z,71.28
2023-05-07T01:08:40.958Z,71.96
2023-05-07T01:11:14.758Z,71.76
2023-05-07T01:13:45.649Z,71.25
2023-05-07T01:16:18.798Z,71.08
2023-05-07T01:18:52.594Z,71.80
2023-05-07T01:21:28.291Z,72.15
2023-05-07T01:24:05.113Z,71.70
2023-05-07T01:26:36.885Z,72.00
2023-05-07T01:29:06.914Z,71.31
2023-05-07T01:31:38.683Z,71.80
2023-05-07T01:34:11.007Z,71.70
2023-05-07T01:36:43.959Z,71.75
2023-05-07T01:39:19.542Z,71.97
2023-05-07T01:41:50.630Z,71.66
2023-05-07T01:44:22.300Z,71.54
2023-05-07T01:46:52.985Z,71.47
2023-05-07T01:49:29.566Z,71.82
2023-05-07T01:51:59.841Z,71.31
2023-05-07T01:54:47.268Z,71.03
2023-05-07T01:57:17.336Z,71.48
2023-05-07T01:59:47.388Z,71.26
2023-05-07T02:02:17.698Z,71.58
2023-05-07T02:04:48.794Z,71.58
2023-05-07T02:07:25.984Z,71.61
2023-05-07T02:09:59.260Z,71.32
2023-05-07T02:12:39.627Z,71.70
2023-05-07T02:15:11.953Z,71.89
2023-05-07T02:17:43.762Z,71.73
2023-05-07T02:20:16.537Z,71.71
2023-05-07T02:22:46.472Z,71.48
2023-05-07T02:25:19.698Z,71.16
2023-05-07T02:27:52.010Z,71.10
2023-05-07T02:30:29.772Z,70.86
2023-05-07T02:33:02.143Z,70.87
2023-05-07T02:35:35.832Z,71.21
2023-05-07T02:38:18.801Z,70.75
2023-05-07T02:40:52.887Z,71.03
2023-05-07T02:43:23.728Z,71.21
2023-05-07T02:46:09.437Z,70.85
2023-05-07T02:48:44.526Z,70.51
2023-05-07T02:51:18.780Z,70.80
2023-05-07T02:53:49.196Z,70.56
2023-05-07T02:56:29.914Z,70.15
2023-05-07T02:59:00.633Z,70.47
2023-05-07T03:01:38.795Z,70.68
2023-05-07T03:04:11.908Z,70.59
2023-05-07T03:06:41.925Z,70.94
2023-05-07T03:09:12.109Z,70.88
2023-05-07T03:11:44.918Z,70.92
2023-05-07T03:14:14.906Z,70.62
2023-05-07T03:16:44.962Z,70.41
2023-05-07T03:19:16.812Z,70.29
2023-05-07T03:21:46.986Z,70.85
2023-05-07T03:24:19.113Z,71.05
2023-05-07T03:26:52.486Z,71.18
2023-05-07T03:29:22.805Z,71.37
2023-05-07T03:31:52.987Z,71.02
2023-05-07T03:34:23.838Z,71.29
2023-05-07T03:36:56.141Z,71.14
2023-05-07T03:39:27.675Z,71.41
2023-05-07T03:42:01.975Z,71.19
2023-05-07T03:44:34.979Z,71.42
2023-05-07T03:47:05.838Z,71.28
2023-05-07T03:49:40.748Z,71.30
2023-05-07T03:52:23.476Z,71.17
2023-05-07T03:54:53.472Z,71.28
2023-05-07T03:57:27.361Z,71.39
2023-05-07T03:59:59.970Z,71.37
2023-05-07T04:02:30.291Z,71.70
2023-05-07T04:05:02.430Z,71.58
2023-05-07T04:07:32.584Z,71.52
2023-05-07T04:10:02.553Z,71.77
2023-05-07T04:12:36.319Z,72.04
2023-05-07T04:15:09.851Z,71.88
2023-05-07T04:17:41.036Z,71.28
2023-05-07T04:20:14.382Z,71.83
2023-05-07T04:22:44.425Z,71.35
2023-05-07T04:25:14.945Z,71.05
2023-05-07T04:27:48.291Z,71.09
2023-05-07T04:30:19.364Z,73.90
2023-05-07T04:32:49.550Z,71.62
2023-05-07T04:35:22.194Z,71.23
2023-05-07T04:37:52.468Z,71.05
2023-05-07T04:40:22.757Z,71.11
2023-05-07T04:42:55.932Z,70.89
2023-05-07T04:45:26.490Z,71.01
2023-05-07T04:47:59.930Z,71.17
2023-05-07T04:50:33.342Z,71.08
2023-05-07T04:53:09.339Z,71.36
2023-05-07T04:55:48.082Z,71.36
2023-05-07T04:58:22.082Z,71.62
2023-05-07T05:00:52.131Z,71.97
2023-05-07T05:03:24.134Z,71.28
2023-05-07T05:05:55.166Z,71.76
2023-05-07T05:08:26.935Z,71.51
2023-05-07T05:11:00.786Z,71.29
2023-05-07T05:13:46.006Z,71.31
2023-05-07T05:16:20.955Z,71.11
2023-05-07T05:18:53.255Z,70.99
2023-05-07T05:21:23.508Z,71.15
2023-05-07T05:23:57.133Z,71.21
2023-05-07T05:26:29.379Z,70.62
2023-05-07T05:29:03.085Z,70.87
2023-05-07T05:31:36.007Z,71.05
2023-05-07T05:34:06.862Z,71.34
2023-05-07T05:36:36.960Z,70.74
2023-05-07T05:39:07.997Z,70.82
2023-05-07T05:41:41.088Z,70.62
2023-05-07T05:44:18.472Z,71.15
2023-05-07T05:46:48.661Z,70.83
2023-05-07T05:49:18.932Z,70.49
2023-05-07T05:51:56.430Z,70.40
2023-05-07T05:54:27.926Z,70.17
2023-05-07T05:56:58.840Z,69.83
2023-05-07T05:59:31.920Z,69.93
2023-05-07T06:02:02.228Z,70.04
2023-05-07T06:04:37.297Z,70.28
2023-05-07T06:07:07.889Z,70.37
2023-05-07T06:09:38.381Z,70.41
2023-05-07T06:12:09.837Z,70.02
2023-05-07T06:14:46.981Z,69.97
2023-05-07T06:17:18.733Z,70.17
2023-05-07T06:19:52.816Z,70.26
2023-05-07T06:22:24.369Z,69.97
2023-05-07T06:24:54.386Z,69.78
2023-05-07T06:27:24.664Z,69.81
2023-05-07T06:29:57.609Z,69.88
2023-05-07T06:32:27.623Z,70.08
2023-05-07T06:34:58.386Z,69.71
2023-05-07T06:37:31.823Z,69.45
2023-05-07T06:40:07.354Z,69.38
2023-05-07T06:42:40.278Z,69.22
2023-05-07T06:45:31.625Z,69.28
2023-05-07T06:48:02.581Z,69.08
2023-05-07T06:50:36.444Z,68.88
2023-05-07T06:53:06.572Z,69.09
2023-05-07T06:55:36.950Z,69.00
2023-05-07T06:58:07.147Z,69.34
2023-05-07T07:00:39.959Z,69.20
2023-05-07T07:03:12.412Z,68.78
2023-05-07T07:05:44.892Z,68.95
2023-05-07T07:08:17.000Z,69.03
2023-05-07T07:10:47.173Z,69.14
2023-05-07T07:13:17.456Z,68.96
2023-05-07T07:15:50.173Z,68.86
2023-05-07T07:18:21.466Z,68.56
2023-05-07T07:20:53.333Z,68.44
2023-05-07T07:23:24.967Z,67.92
2023-05-07T07:25:54.934Z,68.16
2023-05-07T07:28:26.921Z,68.00
2023-05-07T07:30:59.722Z,67.97
2023-05-07T07:33:30.216Z,67.61
2023-05-07T07:36:00.639Z,67.70
2023-05-07T07:38:30.837Z,67.64
2023-05-07T07:41:00.818Z,67.31
2023-05-07T07:43:30.995Z,67.29
2023-05-07T07:46:03.761Z,67.12
2023-05-07T07:48:35.324Z,66.81
2023-05-07T07:51:12.898Z,66.82
2023-05-07T07:53:44.674Z,66.16
2023-05-07T07:56:16.466Z,66.40
2023-05-07T07:58:46.876Z,66.76
2023-05-07T08:01:19.770Z,66.47
2023-05-07T08:03:51.127Z,66.67
2023-05-07T08:06:24.294Z,66.55
2023-05-07T08:08:54.523Z,66.69
2023-05-07T08:11:26.559Z,66.61
2023-05-07T08:13:59.966Z,66.77
2023-05-07T08:16:33.387Z,66.91
2023-05-07T08:19:04.732Z,67.36
2023-05-07T08:21:35.635Z,66.88
2023-05-07T08:24:06.193Z,67.23
2023-05-07T08:26:40.547Z,67.23
2023-05-07T08:29:12.011Z,67.50
2023-05-07T08:31:44.735Z,67.27
2023-05-07T08:34:14.949Z,67.29
2023-05-07T08:36:49.541Z,67.33
2023-05-07T08:39:22.628Z,67.17
2023-05-07T08:41:59.663Z,67.20
2023-05-07T08:44:32.328Z,67.53
2023-05-07T08:47:11.368Z,66.79
2023-05-07T08:49:44.748Z,66.62
2023-05-07T08:52:16.217Z,66.08
2023-05-07T08:54:49.034Z,66.10
2023-05-07T08:57:21.202Z,66.46
2023-05-07T08:59:51.675Z,66.78
2023-05-07T09:02:25.002Z,66.84
2023-05-07T09:04:56.576Z,67.02
2023-05-07T09:07:27.807Z,66.97
2023-05-07T09:09:59.022Z,67.20
2023-05-07T09:12:29.778Z,67.40
2023-05-07T09:14:59.954Z,67.37
2023-05-07T09:17:34.042Z,67.31
2023-05-07T09:20:09.324Z,67.14
2023-05-07T09:22:43.900Z,66.63
2023-05-07T09:25:16.389Z,66.73
2023-05-07T09:27:48.873Z,66.95
2023-05-07T09:30:19.396Z,66.54
2023-05-07T09:32:55.348Z,66.71
2023-05-07T09:35:28.502Z,66.65
2023-05-07T09:38:04.730Z,66.66
2023-05-07T09:40:37.762Z,66.66
2023-05-07T09:43:16.781Z,66.69
2023-05-07T09:45:57.402Z,66.51
2023-05-07T09:48:33.681Z,66.01
2023-05-07T09:51:06.931Z,65.79
2023-05-07T09:53:38.689Z,65.86
2023-05-07T09:56:15.066Z,66.12
2023-05-07T09:58:48.886Z,66.14
2023-05-07T10:01:23.280Z,66.17
2023-05-07T10:03:58.623Z,66.64
2023-05-07T10:06:29.396Z,66.32
2023-05-07T10:09:02.861Z,66.06
2023-05-07T10:11:33.271Z,66.13
2023-05-07T10:14:05.114Z,66.33
2023-05-07T10:16:39.052Z,66.18
2023-05-07T10:19:21.828Z,66.14
2023-05-07T10:22:00.660Z,65.99
2023-05-07T10:24:36.947Z,65.72
2023-05-07T10:27:15.631Z,65.96
2023-05-07T10:29:56.531Z,65.54
2023-05-07T10:32:39.992Z,65.56
2023-05-07T10:35:20.144Z,65.66
2023-05-07T10:37:53.217Z,65.20
2023-05-07T10:40:27.978Z,65.44
2023-05-07T10:43:00.669Z,65.52
2023-05-07T10:45:33.737Z,65.25
2023-05-07T10:51:25.411Z,65.00
2023-05-07T10:54:24.962Z,64.92
2023-05-07T10:57:42.436Z,64.67
2023-05-07T11:00:52.763Z,64.69
2023-05-07T11:03:30.540Z,64.87
2023-05-07T11:06:17.869Z,64.95
2023-05-07T11:09:12.063Z,64.82
2023-05-07T11:11:52.499Z,64.67
2023-05-07T11:14:47.426Z,64.55
2023-05-07T11:17:35.722Z,64.91
2023-05-07T11:20:11.577Z,64.85
2023-05-07T11:22:50.743Z,64.87
2023-05-07T11:25:46.847Z,64.83
2023-05-07T11:28:24.817Z,64.91
2023-05-07T11:31:04.595Z,64.97
2023-05-07T11:33:35.375Z,64.39
2023-05-07T11:36:09.411Z,63.82
2023-05-07T11:38:47.589Z,63.23
2023-05-07T11:41:21.047Z,63.03
2023-05-07T11:44:02.844Z,63.36
2023-05-07T11:46:33.035Z,63.48
2023-05-07T11:49:04.966Z,63.94
2023-05-07T11:51:35.208Z,63.73
2023-05-07T11:54:09.864Z,63.85
2023-05-07T11:56:39.994Z,63.72
2023-05-07T11:59:10.383Z,63.66
2023-05-07T12:01:40.956Z,64.09
2023-05-07T12:04:28.468Z,63.81
2023-05-07T12:06:58.673Z,63.84
2023-05-07T12:09:36.852Z,63.82
2023-05-07T12:12:10.358Z,63.64
2023-05-07T12:14:49.994Z,63.54
2023-05-07T12:17:20.447Z,63.94
2023-05-07T12:19:52.072Z,63.77
2023-05-07T12:22:23.205Z,63.29
2023-05-07T12:25:03.961Z,63.41
2023-05-07T12:27:34.858Z,63.95
2023-05-07T12:30:05.001Z,63.88
2023-05-07T12:32:37.714Z,63.74
2023-05-07T12:35:10.718Z,63.95
2023-05-07T12:37:40.915Z,64.13
2023-05-07T12:40:15.570Z,64.16
2023-05-07T12:42:46.300Z,64.10
2023-05-07T12:45:19.361Z,63.99
2023-05-07T12:47:49.716Z,64.17
2023-05-07T12:50:22.120Z,64.20
2023-05-07T12:52:52.509Z,64.17
2023-05-07T12:55:25.263Z,63.80
2023-05-07T12:57:58.541Z,63.58
2023-05-07T13:00:39.180Z,63.32
2023-05-07T13:03:11.555Z,62.79
2023-05-07T13:05:42.100Z,62.85
2023-05-07T13:08:12.574Z,62.94
2023-05-07T13:10:45.211Z,62.90
2023-05-07T13:13:15.489Z,62.80
2023-05-07T13:15:45.547Z,63.02
2023-05-07T13:18:18.675Z,62.88
2023-05-07T13:20:49.162Z,63.00
2023-05-07T13:23:20.162Z,63.01
2023-05-07T13:25:55.016Z,62.51
2023-05-07T13:28:25.360Z,62.39
2023-05-07T13:30:55.975Z,62.33
2023-05-07T13:33:25.990Z,62.00
2023-05-07T13:35:58.184Z,61.42
2023-05-07T13:38:28.418Z,61.61
2023-05-07T13:41:01.907Z,61.85
2023-05-07T13:43:33.062Z,62.04
2023-05-07T13:46:03.696Z,62.03
2023-05-07T13:48:34.296Z,62.12
2023-05-07T13:51:08.187Z,61.97
2023-05-07T13:53:38.334Z,61.61
2023-05-07T13:56:12.059Z,61.53
2023-05-07T13:58:51.980Z,61.09
2023-05-07T14:01:29.593Z,60.79
2023-05-07T14:04:00.781Z,60.91
2023-05-07T14:06:31.066Z,60.95
2023-05-07T14:09:01.489Z,61.17
2023-05-07T14:11:36.132Z,61.32
2023-05-07T14:14:09.377Z,61.98
2023-05-07T14:16:39.507Z,62.13
2023-05-07T14:19:09.551Z,62.12
2023-05-07T14:21:39.662Z,62.79
2023-05-07T14:24:11.800Z,62.95
2023-05-07T14:26:44.513Z,62.91
2023-05-07T14:29:14.630Z,63.01
2023-05-07T14:31:46.879Z,63.13
2023-05-07T14:34:16.926Z,62.74
2023-05-07T14:36:47.423Z,62.79
2023-05-07T14:39:17.889Z,62.69
2023-05-07T14:41:53.404Z,62.99
2023-05-07T14:44:23.526Z,63.50
2023-05-07T14:46:55.014Z,63.44
2023-05-07T14:49:25.191Z,63.25
2023-05-07T14:51:55.701Z,63.45
2023-05-07T14:54:29.226Z,63.55
2023-05-07T14:57:01.939Z,63.49
2023-05-07T14:59:32.338Z,63.16
2023-05-07T15:02:05.398Z,62.52
2023-05-07T15:04:37.177Z,62.50
2023-05-07T15:07:07.247Z,62.42
2023-05-07T15:09:37.288Z,62.30
2023-05-07T15:12:10.136Z,62.41
2023-05-07T15:14:40.293Z,62.54
2023-05-07T15:17:10.600Z,62.42
2023-05-07T15:19:40.617Z,62.40
2023-05-07T15:22:10.846Z,62.27
2023-05-07T15:24:40.861Z,62.33
2023-05-07T15:27:14.165Z,62.31
2023-05-07T15:29:44.389Z,62.27
2023-05-07T15:32:16.029Z,62.28
2023-05-07T15:34:46.186Z,62.17
2023-05-07T15:37:17.167Z,62.26
2023-05-07T15:39:47.378Z,62.26
2023-05-07T15:42:20.095Z,62.32
2023-05-07T15:44:52.201Z,62.68
2023-05-07T15:47:22.396Z,62.73
2023-05-07T15:49:53.043Z,62.40
2023-05-07T15:52:23.264Z,62.35
2023-05-07T15:54:53.277Z,62.38
2023-05-07T15:57:26.595Z,62.41
2023-05-07T15:59:56.995Z,62.61
2023-05-07T16:02:27.030Z,62.74
2023-05-07T16:04:57.261Z,62.71
2023-05-07T16:07:27.252Z,63.07
2023-05-07T16:09:57.286Z,63.05
2023-05-07T16:12:30.080Z,63.31
2023-05-07T16:15:00.159Z,63.27
2023-05-07T16:17:30.414Z,63.59
2023-05-07T16:20:02.265Z,63.72
2023-05-07T16:22:33.787Z,63.93
2023-05-07T16:25:05.395Z,63.82
2023-05-07T16:27:38.237Z,64.08
2023-05-07T16:30:12.165Z,63.94
2023-05-07T16:32:42.302Z,64.11
2023-05-07T16:35:13.497Z,63.99
2023-05-07T16:37:44.318Z,63.88
2023-05-07T16:40:17.023Z,64.01
2023-05-07T16:42:49.636Z,63.95
2023-05-07T16:45:19.790Z,64.05
2023-05-07T16:47:51.640Z,63.88
2023-05-07T16:50:21.922Z,63.83
2023-05-07T16:52:55.032Z,63.74
2023-05-07T16:55:27.721Z,63.94
2023-05-07T16:58:00.420Z,64.03
2023-05-07T17:00:42.134Z,64.08
2023-05-07T17:03:19.952Z,63.81
2023-05-07T17:05:52.656Z,63.87
2023-05-07T17:08:22.714Z,63.91
2023-05-07T17:10:53.123Z,63.99
2023-05-07T17:13:25.965Z,64.09
2023-05-07T17:15:56.072Z,64.24
2023-05-07T17:18:26.399Z,64.17
2023-05-07T17:20:56.539Z,64.23
2023-05-07T17:23:26.590Z,64.28
2023-05-07T17:25:56.711Z,64.26
2023-05-07T17:28:29.267Z,64.31
2023-05-07T17:30:59.309Z,64.40
2023-05-07T17:33:29.410Z,64.57
2023-05-07T17:35:59.835Z,64.61
2023-05-07T17:38:29.953Z,64.60
2023-05-07T17:41:00.784Z,64.78
2023-05-07T17:43:39.587Z,64.80
2023-05-07T17:46:11.572Z,64.96
2023-05-07T17:48:42.277Z,65.08
2023-05-07T17:51:12.593Z,64.96
2023-05-07T17:53:42.867Z,65.05
2023-05-07T17:56:15.864Z,64.88
2023-05-07T18:01:24.297Z,65.09
2023-05-07T18:03:54.655Z,65.02
2023-05-07T18:06:24.766Z,65.25
2023-05-07T18:08:54.842Z,65.10
2023-05-07T18:11:26.613Z,65.31
2023-05-07T18:13:59.245Z,65.24
2023-05-07T18:16:29.559Z,65.18
2023-05-07T18:18:59.658Z,65.29
2023-05-07T18:21:29.749Z,65.24
2023-05-07T18:23:59.728Z,65.56
2023-05-07T18:26:33.735Z,65.54
2023-05-07T18:29:06.376Z,65.69
2023-05-07T18:31:38.033Z,65.59
2023-05-07T18:34:10.360Z,65.56
2023-05-07T18:36:40.505Z,65.51
2023-05-07T18:39:11.202Z,65.45
2023-05-07T18:41:41.591Z,65.57
2023-05-07T18:44:14.180Z,65.31
2023-05-07T18:46:45.627Z,65.51
2023-05-07T18:49:15.816Z,65.57
2023-05-07T18:51:46.147Z,65.52
2023-05-07T18:54:16.613Z,65.94
2023-05-07T18:56:46.652Z,65.63
2023-05-07T18:59:19.224Z,65.86
2023-05-07T19:01:51.191Z,65.61
2023-05-07T19:04:21.339Z,65.64
2023-05-07T19:06:53.636Z,65.96
2023-05-07T19:09:23.681Z,66.08
2023-05-07T19:11:53.819Z,65.79
2023-05-07T19:14:28.044Z,65.97
2023-05-07T19:16:58.195Z,65.93
2023-05-07T19:19:29.883Z,66.15
2023-05-07T19:22:00.170Z,66.17
2023-05-07T19:24:30.280Z,65.87
2023-05-07T19:27:01.861Z,65.96
2023-05-07T19:29:34.529Z,65.82
2023-05-07T19:32:04.604Z,65.96
2023-05-07T19:34:36.103Z,66.00
2023-05-07T19:37:07.608Z,66.08
2023-05-07T19:39:37.615Z,66.09
2023-05-07T19:42:08.003Z,65.94
2023-05-07T19:44:41.043Z,66.04
2023-05-07T19:47:11.105Z,65.98
2023-05-07T19:49:41.557Z,65.99
2023-05-07T19:52:11.858Z,65.98
2023-05-07T19:54:42.006Z,66.03
2023-05-07T19:57:12.693Z,66.16
2023-05-07T19:59:46.380Z,66.24
2023-05-07T20:02:21.961Z,66.43
2023-05-07T20:04:55.232Z,66.33
2023-05-07T20:07:25.349Z,66.29
2023-05-07T20:09:55.392Z,66.31
2023-05-07T20:12:25.337Z,66.24
2023-05-07T20:14:57.939Z,66.29
2023-05-07T20:17:28.121Z,66.43
2023-05-07T20:19:58.475Z,66.25
2023-05-07T20:22:28.417Z,66.22
2023-05-07T20:24:58.522Z,66.31
2023-05-07T20:27:28.823Z,66.44
2023-05-07T20:30:01.426Z,66.27
2023-05-07T20:32:31.752Z,66.39
2023-05-07T20:35:02.072Z,66.65
2023-05-07T20:37:32.415Z,66.64
2023-05-07T20:40:03.259Z,66.80
2023-05-07T20:42:33.332Z,66.58
2023-05-07T20:45:06.536Z,66.54
2023-05-07T20:47:36.630Z,66.62
2023-05-07T20:50:07.425Z,66.75
2023-05-07T20:52:38.099Z,66.88
2023-05-07T20:55:12.516Z,66.78
2023-05-07T20:57:42.540Z,66.80
2023-05-07T21:00:17.500Z,66.87
2023-05-07T21:02:47.990Z,66.63
2023-05-07T21:05:18.145Z,67.07
2023-05-07T21:07:50.592Z,66.66
2023-05-07T21:10:20.805Z,66.76
2023-05-07T21:12:50.803Z,66.77
2023-05-07T21:15:27.063Z,67.05
2023-05-07T21:18:03.998Z,66.68
2023-05-07T21:20:35.566Z,66.80
2023-05-07T21:23:10.678Z,66.91
2023-05-07T21:25:41.670Z,66.98
2023-05-07T21:28:13.407Z,66.97
2023-05-07T21:30:46.051Z,67.18
2023-05-07T21:33:18.568Z,67.09
2023-05-07T21:35:48.653Z,66.89
2023-05-07T21:38:18.947Z,66.96
2023-05-07T21:40:48.991Z,67.10
2023-05-07T21:43:19.108Z,67.32
2023-05-07T21:45:51.810Z,67.16
2023-05-07T21:48:22.291Z,67.28
2023-05-07T21:51:03.548Z,67.07
2023-05-07T21:53:34.035Z,67.16
2023-05-07T21:56:05.207Z,67.03
2023-05-07T21:58:35.431Z,67.24
2023-05-07T22:01:12.529Z,67.27
2023-05-07T22:03:43.198Z,67.31
2023-05-07T22:06:13.259Z,67.53
2023-05-07T22:08:43.302Z,67.55
2023-05-07T22:11:13.533Z,67.51
2023-05-07T22:13:43.827Z,67.29
2023-05-07T22:16:16.601Z,67.41
2023-05-07T22:18:49.770Z,67.67
2023-05-07T22:21:20.382Z,67.77
2023-05-07T22:23:50.533Z,67.93
2023-05-07T22:26:20.852Z,67.79
2023-05-07T22:28:50.972Z,67.77
2023-05-07T22:31:23.573Z,67.86
2023-05-07T22:33:55.948Z,67.83
2023-05-07T22:36:25.968Z,67.90
2023-05-07T22:38:56.085Z,67.76
2023-05-07T22:41:26.664Z,68.02
2023-05-07T22:43:56.940Z,67.90
2023-05-07T22:46:29.860Z,67.85
2023-05-07T22:48:59.964Z,67.86
2023-05-07T22:51:30.101Z,68.00
2023-05-07T22:54:00.695Z,68.23
2023-05-07T22:56:30.798Z,67.93
2023-05-07T22:59:00.844Z,68.03
2023-05-07T23:01:33.427Z,68.20
2023-05-07T23:04:03.575Z,68.25
2023-05-07T23:06:33.602Z,68.09
2023-05-07T23:09:04.384Z,68.08
2023-05-07T23:11:34.347Z,68.35
2023-05-07T23:14:04.484Z,68.03
2023-05-07T23:16:38.195Z,68.19
2023-05-07T23:19:08.197Z,68.27
2023-05-07T23:21:38.280Z,68.24
2023-05-07T23:24:09.035Z,68.14
2023-05-07T23:26:39.059Z,68.07
2023-05-07T23:29:09.025Z,68.45
2023-05-07T23:31:41.683Z,68.52
2023-05-07T23:34:11.753Z,68.52
2023-05-07T23:36:41.958Z,68.53
2023-05-07T23:39:12.113Z,68.54
2023-05-07T23:41:42.096Z,68.70
2023-05-07T23:44:12.075Z,68.78
2023-05-07T23:46:44.919Z,68.41
2023-05-07T23:49:15.117Z,68.30
2023-05-07T23:51:45.358Z,68.27
2023-05-07T23:54:15.469Z,68.40
2023-05-07T23:56:45.705Z,68.24
2023-05-07T23:59:15.668Z,68.39
